createdAt,value
2022-11-05T00:03:16.639Z,106.87
2022-11-05T00:06:38.390Z,102.40
2022-11-05T00:09:44.430Z,94.83
2022-11-05T00:13:06.161Z,86.40
2022-11-05T00:16:28.769Z,74.17
2022-11-05T00:19:33.119Z,72.60
2022-11-05T00:23:09.069Z,72.13
2022-11-05T00:26:15.694Z,71.97
2022-11-05T00:29:19.750Z,71.63
2022-11-05T00:32:23.977Z,73.13
2022-11-05T00:35:28.311Z,75.30
2022-11-05T00:38:32.931Z,64.47
2022-11-05T00:41:38.800Z,63.93
2022-11-05T00:45:01.360Z,68.13
2022-11-05T00:48:23.242Z,66.00
2022-11-05T00:51:27.096Z,65.57
2022-11-05T00:54:30.807Z,65.73
2022-11-05T00:57:35.875Z,63.30
2022-11-05T01:00:41.505Z,67.70
2022-11-05T01:03:50.375Z,66.37
2022-11-05T01:06:56.458Z,64.40
2022-11-05T01:10:00.102Z,68.10
2022-11-05T01:13:08.837Z,54.90
2022-11-05T01:16:16.345Z,65.30
2022-11-05T01:19:20.139Z,57.90
2022-11-05T01:22:23.789Z,62.93
2022-11-05T01:25:27.549Z,58.93
2022-11-05T01:28:32.775Z,53.97
2022-11-05T01:31:36.586Z,60.70
2022-11-05T01:34:40.178Z,52.87
2022-11-05T01:37:43.959Z,57.60
2022-11-05T01:40:48.190Z,59.10
2022-11-05T01:43:55.848Z,61.33
2022-11-05T01:46:59.540Z,58.13
2022-11-05T01:50:08.611Z,50.37
2022-11-05T01:53:22.566Z,48.87
2022-11-05T01:56:31.600Z,58.30
2022-11-05T01:59:40.402Z,52.93
2022-11-05T02:02:45.247Z,53.13
2022-11-05T02:05:51.894Z,55.47
2022-11-05T02:09:02.163Z,53.97
2022-11-05T02:12:07.319Z,58.40
2022-11-05T02:15:14.086Z,52.73
2022-11-05T02:18:24.226Z,58.63
2022-11-05T02:22:03.652Z,51.83
2022-11-05T02:25:33.825Z,51.97
2022-11-05T02:29:00.715Z,60.17
2022-11-05T02:32:12.767Z,58.33
2022-11-05T02:35:24.360Z,52.40
2022-11-05T02:38:37.596Z,55.90
2022-11-05T02:41:49.560Z,58.33
2022-11-05T02:45:01.700Z,59.20
2022-11-05T02:48:14.936Z,58.87
2022-11-05T02:51:25.713Z,51.93
2022-11-05T02:54:36.319Z,53.97
2022-11-05T02:57:46.319Z,54.00
2022-11-05T03:00:52.186Z,50.90
2022-11-05T03:04:00.863Z,53.17
2022-11-05T03:07:32.372Z,56.37
2022-11-05T03:10:47.523Z,44.70
2022-11-05T03:13:59.420Z,50.23
2022-11-05T03:17:12.081Z,46.20
2022-11-05T03:20:22.597Z,48.10
2022-11-05T03:23:31.670Z,50.60
2022-11-05T03:26:42.031Z,56.40
2022-11-05T03:29:51.119Z,46.57
2022-11-05T03:32:59.492Z,48.43
2022-11-05T03:36:11.265Z,46.23
2022-11-05T03:39:21.630Z,44.30
2022-11-05T03:42:28.047Z,52.63
2022-11-05T03:45:37.836Z,53.37
2022-11-05T03:48:48.798Z,53.00
2022-11-05T03:52:00.451Z,48.30
2022-11-05T03:55:04.320Z,48.00
2022-11-05T03:58:08.689Z,52.97
2022-11-05T04:01:13.351Z,47.80
2022-11-05T04:04:17.298Z,48.47
2022-11-05T04:07:39.302Z,46.53
2022-11-05T04:11:00.179Z,48.23
2022-11-05T04:14:03.806Z,46.30
2022-11-05T04:17:08.836Z,45.80
2022-11-05T04:20:29.846Z,42.67
2022-11-05T04:23:52.519Z,48.70
2022-11-05T04:26:58.455Z,46.50
2022-11-05T04:30:20.149Z,48.80
2022-11-05T04:33:24.007Z,48.73
2022-11-05T04:36:27.770Z,48.23
2022-11-05T04:39:33.349Z,54.77
2022-11-05T04:42:37.169Z,50.43
2022-11-05T04:45:40.979Z,51.43
2022-11-05T04:48:44.746Z,50.73
2022-11-05T04:51:48.620Z,57.77
2022-11-05T04:54:53.904Z,68.80
2022-11-05T04:57:57.586Z,56.47
2022-11-05T05:01:04.722Z,54.37
2022-11-05T05:04:08.496Z,51.30
2022-11-05T05:07:12.269Z,51.10
2022-11-05T05:10:17.736Z,51.67
2022-11-05T05:13:21.569Z,49.63
2022-11-05T05:16:26.660Z,49.57
2022-11-05T05:19:30.559Z,51.27
2022-11-05T05:22:33.289Z,50.40
2022-11-05T05:25:39.835Z,52.63
2022-11-05T05:28:46.367Z,47.77
2022-11-05T05:31:50.208Z,54.00
2022-11-05T05:34:54.380Z,54.57
2022-11-05T05:37:58.186Z,44.67
2022-11-05T05:41:03.424Z,52.13
2022-11-05T05:44:07.748Z,47.67
2022-11-05T05:47:11.426Z,46.40
2022-11-05T05:50:15.491Z,45.27
2022-11-05T05:53:19.400Z,44.17
2022-11-05T05:56:24.669Z,45.70
2022-11-05T05:59:28.429Z,41.83
2022-11-05T06:02:32.284Z,41.10
2022-11-05T06:05:36.090Z,49.33
2022-11-05T06:08:40.031Z,44.40
2022-11-05T06:11:45.227Z,44.33
2022-11-05T06:14:48.940Z,51.57
2022-11-05T06:17:52.689Z,40.13
2022-11-05T06:20:57.299Z,43.80
2022-11-05T06:24:02.000Z,46.07
2022-11-05T06:27:07.148Z,46.47
2022-11-05T06:30:12.180Z,60.27
2022-11-05T06:33:15.816Z,45.67
2022-11-05T06:36:20.918Z,47.83
2022-11-05T06:39:24.734Z,44.57
2022-11-05T06:42:29.998Z,44.80
2022-11-05T06:45:33.904Z,44.77
2022-11-05T06:48:37.654Z,48.30
2022-11-05T06:51:41.484Z,46.30
2022-11-05T06:54:45.957Z,50.70
2022-11-05T06:57:52.099Z,48.40
2022-11-05T07:00:55.879Z,50.07
2022-11-05T07:04:00.074Z,57.97
2022-11-05T07:07:03.797Z,48.13
2022-11-05T07:10:09.535Z,48.97
2022-11-05T07:13:14.972Z,52.30
2022-11-05T07:16:19.326Z,56.33
2022-11-05T07:19:23.665Z,52.17
2022-11-05T07:22:27.358Z,50.17
2022-11-05T07:25:32.988Z,54.20
2022-11-05T07:28:38.189Z,52.83
2022-11-05T07:31:42.194Z,53.07
2022-11-05T07:34:46.012Z,54.67
2022-11-05T07:37:51.279Z,55.50
2022-11-05T07:40:55.348Z,48.77
2022-11-05T07:44:00.955Z,52.40
2022-11-05T07:47:07.789Z,55.33
2022-11-05T07:50:11.865Z,49.87
2022-11-05T07:53:16.406Z,57.10
2022-11-05T07:56:20.258Z,47.70
2022-11-05T07:59:25.705Z,47.30
2022-11-05T08:02:29.568Z,47.87
2022-11-05T08:05:36.837Z,46.53
2022-11-05T08:08:40.815Z,49.93
2022-11-05T08:11:45.926Z,46.57
2022-11-05T08:14:52.005Z,47.43
2022-11-05T08:18:00.005Z,51.80
2022-11-05T08:21:06.632Z,53.63
2022-11-05T08:24:11.099Z,61.63
2022-11-05T08:27:14.969Z,52.83
2022-11-05T08:30:20.365Z,50.37
2022-11-05T08:33:25.386Z,51.73
2022-11-05T08:36:29.188Z,52.73
2022-11-05T08:39:32.849Z,51.07
2022-11-05T08:42:36.665Z,52.50
2022-11-05T08:45:42.744Z,56.37
2022-11-05T08:48:46.549Z,56.27
2022-11-05T08:51:50.236Z,55.33
2022-11-05T08:54:54.022Z,51.73
2022-11-05T08:57:58.546Z,64.53
2022-11-05T09:01:06.200Z,49.13
2022-11-05T09:04:10.165Z,58.47
2022-11-05T09:07:13.849Z,62.27
2022-11-05T09:10:17.666Z,63.57
2022-11-05T09:13:22.014Z,55.33
2022-11-05T09:16:28.125Z,61.70
2022-11-05T09:19:33.750Z,55.40
2022-11-05T09:22:43.308Z,53.47
2022-11-05T09:25:48.278Z,52.93
2022-11-05T09:28:52.079Z,60.97
2022-11-05T09:31:57.168Z,62.20
2022-11-05T09:35:01.507Z,61.00
2022-11-05T09:38:05.248Z,57.55
2022-11-05T09:41:14.628Z,50.50
2022-11-05T09:44:23.011Z,50.70
2022-11-05T09:47:32.664Z,48.95
2022-11-05T09:50:40.985Z,45.90
2022-11-05T09:53:46.985Z,46.90
2022-11-05T09:56:50.963Z,46.55
2022-11-05T09:59:57.097Z,41.15
2022-11-05T10:03:08.451Z,47.60
2022-11-05T10:06:19.878Z,53.70
2022-11-05T10:09:28.168Z,55.72
2022-11-05T10:12:37.504Z,48.60
2022-11-05T10:15:44.391Z,59.40
2022-11-05T10:18:55.379Z,57.83
2022-11-05T10:22:10.674Z,69.90
2022-11-05T10:25:19.847Z,66.65
2022-11-05T10:28:25.362Z,50.25
2022-11-05T10:31:35.415Z,51.13
2022-11-05T10:34:41.405Z,47.90
2022-11-05T10:37:45.084Z,46.38
2022-11-05T10:40:59.369Z,47.63
2022-11-05T10:44:17.626Z,46.42
2022-11-05T10:47:45.991Z,46.30
2022-11-05T10:50:51.229Z,49.17
2022-11-05T10:54:01.982Z,49.53
2022-11-05T10:57:29.478Z,38.55
2022-11-05T11:00:33.258Z,44.75
2022-11-05T11:03:42.729Z,45.08
2022-11-05T11:06:51.869Z,37.28
2022-11-05T11:09:55.879Z,41.65
2022-11-05T11:12:59.905Z,37.70
2022-11-05T11:16:17.269Z,35.45
2022-11-05T11:19:29.549Z,32.33
2022-11-05T11:22:35.066Z,37.08
2022-11-05T11:25:47.459Z,37.38
2022-11-05T11:28:58.619Z,35.53
2022-11-05T11:32:02.413Z,36.78
2022-11-05T11:35:09.540Z,36.92
2022-11-05T11:38:16.424Z,34.42
2022-11-05T11:41:27.578Z,36.60
2022-11-05T11:44:34.155Z,37.63
2022-11-05T11:47:45.768Z,33.13
2022-11-05T11:50:50.587Z,34.88
2022-11-05T11:53:58.304Z,42.83
2022-11-05T11:57:02.186Z,33.50
2022-11-05T12:00:09.414Z,40.30
2022-11-05T12:03:25.783Z,44.22
2022-11-05T12:06:37.559Z,49.10
2022-11-05T12:10:00.059Z,44.05
2022-11-05T12:13:34.658Z,45.58
2022-11-05T12:16:49.855Z,38.53
2022-11-05T12:20:25.927Z,38.78
2022-11-05T12:23:56.926Z,40.42
2022-11-05T12:27:17.175Z,40.40
2022-11-05T12:30:22.819Z,41.10
2022-11-05T12:33:44.087Z,40.13
2022-11-05T12:37:09.314Z,37.75
2022-11-05T12:40:37.008Z,44.20
2022-11-05T12:43:54.545Z,38.97
2022-11-05T12:47:14.318Z,37.10
2022-11-05T12:50:26.260Z,42.60
2022-11-05T12:53:42.673Z,52.58
2022-11-05T12:56:50.731Z,42.58
2022-11-05T13:00:00.007Z,42.90
2022-11-05T13:03:18.686Z,37.42
2022-11-05T13:06:26.366Z,40.25
2022-11-05T13:09:35.786Z,37.53
2022-11-05T13:12:41.731Z,39.42
2022-11-05T13:15:53.165Z,35.13
2022-11-05T13:19:00.433Z,39.92
2022-11-05T13:22:17.920Z,40.63
2022-11-05T13:25:25.578Z,39.87
2022-11-05T13:28:36.846Z,39.35
2022-11-05T13:31:46.958Z,40.80
2022-11-05T13:34:50.686Z,40.38
2022-11-05T13:38:16.647Z,43.13
2022-11-05T13:41:33.219Z,42.97
2022-11-05T13:45:04.968Z,45.93
2022-11-05T13:48:31.332Z,39.70
2022-11-05T13:51:53.095Z,38.83
2022-11-05T13:55:19.738Z,42.87
2022-11-05T13:58:58.501Z,39.87
2022-11-05T14:02:05.355Z,45.70
2022-11-05T14:05:24.525Z,39.57
2022-11-05T14:08:31.308Z,46.47
2022-11-05T14:11:38.025Z,48.90
2022-11-05T14:14:47.285Z,55.07
2022-11-05T14:18:00.490Z,59.13
2022-11-05T14:21:08.100Z,56.97
2022-11-05T14:24:27.839Z,56.30
2022-11-05T14:27:44.069Z,49.83
2022-11-05T14:30:49.188Z,46.93
2022-11-05T14:34:01.459Z,48.63
2022-11-05T14:37:33.745Z,58.50
2022-11-05T14:40:39.900Z,51.03
2022-11-05T14:43:49.431Z,51.83
2022-11-05T14:46:57.625Z,54.20
2022-11-05T14:50:09.190Z,49.73
2022-11-05T14:53:34.966Z,46.67
2022-11-05T14:56:50.544Z,52.53
2022-11-05T15:00:01.084Z,59.17
2022-11-05T15:03:26.488Z,50.67
2022-11-05T15:06:34.568Z,50.70
2022-11-05T15:09:41.885Z,63.00
2022-11-05T15:12:49.061Z,49.90
2022-11-05T15:15:53.898Z,52.17
2022-11-05T15:18:59.116Z,57.67
2022-11-05T15:22:07.190Z,53.53
2022-11-05T15:25:19.299Z,51.93
2022-11-05T15:28:32.076Z,59.43
2022-11-05T15:31:38.288Z,56.60
2022-11-05T15:34:53.225Z,54.90
2022-11-05T15:38:02.580Z,51.90
2022-11-05T15:41:14.418Z,63.20
2022-11-05T15:44:33.249Z,73.23
2022-11-05T15:47:36.945Z,62.30
2022-11-05T15:50:40.839Z,58.07
2022-11-05T15:57:29.369Z,58.33
2022-11-05T16:00:35.714Z,57.10
2022-11-05T16:03:41.188Z,67.37
2022-11-05T16:06:48.464Z,59.50
2022-11-05T16:09:57.027Z,64.10
2022-11-05T16:13:30.495Z,82.73
2022-11-05T16:16:35.739Z,60.33
2022-11-05T16:19:43.247Z,64.90
2022-11-05T16:22:47.628Z,66.37
2022-11-05T16:25:53.228Z,61.37
2022-11-05T16:28:57.845Z,63.97
2022-11-05T16:32:04.568Z,61.50
2022-11-05T16:35:22.048Z,59.70
2022-11-05T16:38:26.325Z,59.43
2022-11-05T16:41:31.504Z,65.10
2022-11-05T16:44:35.105Z,61.47
2022-11-05T16:47:39.008Z,60.40
2022-11-05T16:50:44.029Z,62.63
2022-11-05T16:53:50.215Z,60.13
2022-11-05T16:56:57.578Z,62.00
2022-11-05T17:00:02.339Z,50.93
2022-11-05T17:03:06.019Z,58.87
2022-11-05T17:06:10.088Z,64.30
2022-11-05T17:09:14.094Z,54.90
2022-11-05T17:12:19.524Z,54.93
2022-11-05T17:15:26.510Z,67.73
2022-11-05T17:18:30.698Z,56.83
2022-11-05T17:21:34.465Z,57.93
2022-11-05T17:24:39.125Z,65.27
2022-11-05T17:27:47.827Z,68.90
2022-11-05T17:30:52.735Z,66.10
2022-11-05T17:33:57.919Z,68.00
2022-11-05T17:37:01.659Z,71.43
2022-11-05T17:40:19.916Z,89.63
2022-11-05T17:43:25.084Z,81.97
2022-11-05T17:46:29.316Z,83.67
2022-11-05T17:49:33.019Z,86.53
2022-11-05T17:52:37.125Z,84.13
2022-11-05T17:55:42.847Z,80.93
2022-11-05T17:58:48.559Z,85.30
2022-11-05T18:01:52.346Z,75.07
2022-11-05T18:04:56.299Z,79.30
2022-11-05T18:08:00.129Z,80.40
2022-11-05T18:11:04.340Z,75.33
2022-11-05T18:14:09.932Z,84.80
2022-11-05T18:17:13.799Z,78.30
2022-11-05T18:20:19.787Z,82.47
2022-11-05T18:23:23.544Z,86.47
2022-11-05T18:26:27.239Z,88.90
2022-11-05T18:29:32.495Z,84.13
2022-11-05T18:32:36.629Z,105.30
2022-11-05T18:35:43.786Z,101.20
2022-11-05T18:38:47.645Z,110.17
2022-11-05T18:41:51.468Z,102.97
2022-11-05T18:44:56.705Z,103.57
2022-11-05T18:48:01.915Z,90.73
2022-11-05T18:51:09.479Z,114.87
2022-11-05T18:54:13.689Z,108.23
2022-11-05T18:57:17.578Z,106.20
2022-11-05T19:00:22.859Z,111.50
2022-11-05T19:03:26.605Z,114.57
2022-11-05T19:06:30.304Z,113.87
2022-11-05T19:09:34.112Z,106.37
2022-11-05T19:12:37.889Z,98.90
2022-11-05T19:15:45.251Z,94.30
2022-11-05T19:18:50.279Z,96.60
2022-11-05T19:21:54.226Z,86.30
2022-11-05T19:24:57.857Z,88.50
2022-11-05T19:28:03.122Z,96.77
2022-11-05T19:31:08.802Z,85.07
2022-11-05T19:34:14.840Z,93.70
2022-11-05T19:37:19.496Z,87.30
2022-11-05T19:40:24.300Z,85.00
2022-11-05T19:43:27.986Z,86.57
2022-11-05T19:46:33.798Z,82.17
2022-11-05T19:49:37.678Z,84.20
2022-11-05T19:52:41.750Z,82.70
2022-11-05T19:55:46.428Z,78.63
2022-11-05T19:58:51.001Z,88.67
2022-11-05T20:01:56.257Z,85.23
2022-11-05T20:05:00.230Z,86.97
2022-11-05T20:08:03.976Z,79.03
2022-11-05T20:11:08.379Z,88.40
2022-11-05T20:14:12.348Z,88.47
2022-11-05T20:17:17.592Z,82.83
2022-11-05T20:20:22.308Z,95.47
2022-11-05T20:23:28.979Z,84.63
2022-11-05T20:26:32.945Z,91.50
2022-11-05T20:29:36.671Z,90.33
2022-11-05T20:32:42.096Z,87.70
2022-11-05T20:35:45.904Z,89.87
2022-11-05T20:38:50.468Z,87.50
2022-11-05T20:41:54.410Z,96.17
2022-11-05T20:45:00.866Z,94.70
2022-11-05T20:48:06.679Z,89.00
2022-11-05T20:51:12.329Z,90.77
2022-11-05T20:54:18.265Z,94.87
2022-11-05T20:57:22.539Z,79.63
2022-11-05T21:00:26.215Z,87.07
2022-11-05T21:03:31.460Z,96.87
2022-11-05T21:06:36.135Z,84.40
2022-11-05T21:09:39.716Z,90.07
2022-11-05T21:12:45.027Z,91.47
2022-11-05T21:15:50.847Z,85.50
2022-11-05T21:18:55.905Z,85.43
2022-11-05T21:21:59.737Z,87.70
2022-11-05T21:25:03.466Z,88.30
2022-11-05T21:28:07.366Z,76.23
2022-11-05T21:31:11.910Z,85.00
2022-11-05T21:34:17.920Z,87.60
2022-11-05T21:37:21.675Z,77.20
2022-11-05T21:40:25.614Z,83.83
2022-11-05T21:43:29.441Z,71.43
2022-11-05T21:46:33.265Z,72.03
2022-11-05T21:49:39.350Z,72.57
2022-11-05T21:53:00.605Z,85.73
2022-11-05T21:56:25.279Z,91.53
2022-11-05T21:59:46.288Z,119.20
2022-11-05T22:02:50.203Z,121.50
2022-11-05T22:05:57.589Z,139.43
2022-11-05T22:09:01.849Z,128.40
2022-11-05T22:12:06.561Z,124.20
2022-11-05T22:15:11.538Z,109.53
2022-11-05T22:18:15.489Z,118.63
2022-11-05T22:21:20.835Z,116.67
2022-11-05T22:24:25.314Z,108.70
2022-11-05T22:27:29.225Z,120.17
2022-11-05T22:30:34.817Z,119.27
2022-11-05T22:33:38.444Z,121.87
2022-11-05T22:36:43.735Z,120.30
2022-11-05T22:39:47.469Z,122.20
2022-11-05T22:42:51.186Z,123.23
2022-11-05T22:45:55.028Z,125.37
2022-11-05T22:48:58.826Z,118.13
2022-11-05T22:52:04.050Z,117.47
2022-11-05T22:55:08.245Z,105.93
2022-11-05T22:58:12.434Z,111.97
2022-11-05T23:01:17.886Z,111.27
2022-11-05T23:04:21.645Z,113.40
2022-11-05T23:07:49.525Z,133.27
2022-11-05T23:11:22.948Z,158.13
2022-11-05T23:14:26.685Z,151.90
2022-11-05T23:17:48.250Z,173.63
2022-11-05T23:21:09.537Z,177.00
2022-11-05T23:24:15.257Z,165.50
2022-11-05T23:27:19.025Z,144.10
2022-11-05T23:30:24.927Z,123.00
2022-11-05T23:33:27.983Z,114.83
2022-11-05T23:36:57.566Z,109.33
2022-11-05T23:40:02.765Z,109.47
2022-11-05T23:43:23.930Z,108.70
2022-11-05T23:46:44.750Z,107.47
2022-11-05T23:49:48.538Z,103.43
2022-11-05T23:52:53.818Z,108.17
2022-11-05T23:56:03.138Z,110.27
2022-11-05T23:59:07.348Z,107.27
